QTR70E OTHH-KDFW
Flight info
| Callsign | QTR70E |
|---|---|
| Flight time | N/A |
| Altitude | 34000 |
| Route | DCT PATOM L934 DAVUS L602 TASMI DCT ALPET L718 KABAN UL718 ULSAB UL614 EZS UW710 SIV UL615 VADEN Y520 LUKOV DCT XENIT DCT BABIT DCT SASAL DCT LAMSI L604 MOOCE/N0471F240 L604 ANELA/N0487F340 L604 RELBI L602 SPY DCT MONIL DCT MOLIX DCT EMLON L602 NALAX L46 GETNO DCT IOM/N0470F240 L10 BELZU/N0491F340 DCT SOVED DCT PIKIL/M085F350 DCT 56N020W 55N030W 53N040W 51N050W DCT ALLRY/N0495F360 DCT ANCER/N0498F380 DCT OXASA DCT NOTAP DCT ODAXY DCT OBK DCT KG66K DCT KK57I DCT KK42G DCT MLC DCT AXXEE BRDJE5 |
| Aircraft | A35K/H-SDE2E3GHIJ3J4J5LM1ORWXY/LB1D1 |
Departure
| Time | 2026-05-07 22:12 |
|---|---|
| Airport | Hamad International Airport (OTHH) |
Arrival
| Time | N/A |
|---|---|
| Airport | Dallas Fort Worth International Airport (KDFW) |
| Time | Latitude | Longitude | Altitude | Speed | Heading |
|---|---|---|---|---|---|
| 2026-05-07 22:09 | 25.25832 | 51.62347 | 35 ft | 12 kts | 158° |
| 2026-05-07 22:09 | 25.25751 | 51.62383 | 35 ft | 13 kts | 158° |
| 2026-05-07 22:10 | 25.25667 | 51.62421 | 34 ft | 13 kts | 158° |
| 2026-05-07 22:10 | 25.25581 | 51.62459 | 34 ft | 13 kts | 158° |
| 2026-05-07 22:10 | 25.25517 | 51.62510 | 34 ft | 11 kts | 111° |
| 2026-05-07 22:10 | 25.25520 | 51.62580 | 33 ft | 9 kts | 60° |
| 2026-05-07 22:11 | 25.25567 | 51.62627 | 32 ft | 9 kts | 26° |
| 2026-05-07 22:11 | 25.25627 | 51.62635 | 32 ft | 9 kts | 352° |
| 2026-05-07 22:11 | 25.25786 | 51.62572 | 32 ft | 49 kts | 338° |
| 2026-05-07 22:11 | 25.26252 | 51.62368 | 33 ft | 95 kts | 338° |
| 2026-05-07 22:12 | 25.27005 | 51.62035 | 29 ft | 136 kts | 338° |
| 2026-05-07 22:12 | 25.28003 | 51.61605 | 50 ft | 169 kts | 340° |
| 2026-05-07 22:12 | 25.29092 | 51.61160 | 505 ft | 164 kts | 340° |
| 2026-05-07 22:12 | 25.30179 | 51.60699 | 853 ft | 170 kts | 336° |
| 2026-05-07 22:13 | 25.31281 | 51.60186 | 1190 ft | 177 kts | 337° |
| 2026-05-07 22:13 | 25.32472 | 51.59640 | 1359 ft | 194 kts | 338° |
| 2026-05-07 22:13 | 25.33761 | 51.59059 | 1499 ft | 206 kts | 338° |
| 2026-05-07 22:13 | 25.35136 | 51.58448 | 1608 ft | 219 kts | 338° |
| 2026-05-07 22:14 | 25.36590 | 51.57804 | 1704 ft | 233 kts | 339° |
| 2026-05-07 22:14 | 25.38117 | 51.57132 | 1837 ft | 245 kts | 339° |
| 2026-05-07 22:14 | 25.39739 | 51.56421 | 2077 ft | 254 kts | 339° |
| 2026-05-07 22:14 | 25.41396 | 51.55696 | 2424 ft | 257 kts | 339° |
| 2026-05-07 22:15 | 25.43072 | 51.54960 | 2765 ft | 261 kts | 338° |
| 2026-05-07 22:15 | 25.44776 | 51.54211 | 3157 ft | 265 kts | 339° |
| 2026-05-07 22:15 | 25.46495 | 51.53455 | 3560 ft | 267 kts | 339° |
| 2026-05-07 22:15 | 25.48220 | 51.52696 | 3996 ft | 267 kts | 339° |
| 2026-05-07 22:16 | 25.49952 | 51.51934 | 4389 ft | 270 kts | 339° |
| 2026-05-07 22:16 | 25.51713 | 51.51160 | 4755 ft | 272 kts | 340° |
| 2026-05-07 22:16 | 25.53478 | 51.50384 | 5149 ft | 274 kts | 340° |
| 2026-05-07 22:16 | 25.55239 | 51.49608 | 5470 ft | 278 kts | 339° |
| 2026-05-07 22:17 | 25.57047 | 51.48808 | 5802 ft | 281 kts | 339° |
| 2026-05-07 22:17 | 25.58876 | 51.47999 | 6139 ft | 285 kts | 339° |
| 2026-05-07 22:17 | 25.60728 | 51.47181 | 6480 ft | 287 kts | 339° |
| 2026-05-07 22:17 | 25.62585 | 51.46363 | 6820 ft | 289 kts | 340° |
| 2026-05-07 22:18 | 25.64467 | 51.45534 | 7211 ft | 289 kts | 339° |
| 2026-05-07 22:18 | 25.68235 | 51.43871 | 7943 ft | 295 kts | 339° |
| 2026-05-07 22:18 | 25.70153 | 51.43024 | 8298 ft | 298 kts | 339° |
| 2026-05-07 22:19 | 25.72086 | 51.42169 | 8692 ft | 301 kts | 339° |
| 2026-05-07 22:19 | 25.74039 | 51.41306 | 9067 ft | 303 kts | 339° |
| 2026-05-07 22:19 | 25.75973 | 51.40453 | 9559 ft | 303 kts | 338° |
| 2026-05-07 22:19 | 25.77950 | 51.39578 | 9865 ft | 309 kts | 338° |
| 2026-05-07 22:20 | 25.79951 | 51.38692 | 9970 ft | 310 kts | 338° |
| 2026-05-07 22:20 | 25.81956 | 51.37804 | 10005 ft | 312 kts | 338° |
| 2026-05-07 22:20 | 25.84003 | 51.36897 | 10130 ft | 323 kts | 338° |
| 2026-05-07 22:20 | 25.86127 | 51.35955 | 10291 ft | 334 kts | 338° |
| 2026-05-07 22:21 | 25.88313 | 51.34985 | 10445 ft | 345 kts | 338° |
| 2026-05-07 22:21 | 25.90591 | 51.33974 | 10622 ft | 356 kts | 338° |
| 2026-05-07 22:21 | 25.92925 | 51.32939 | 10782 ft | 365 kts | 338° |
| 2026-05-07 22:21 | 25.95311 | 51.31867 | 10918 ft | 375 kts | 336° |
| 2026-05-07 22:22 | 25.97623 | 51.30450 | 11059 ft | 384 kts | 326° |
| 2026-05-07 22:22 | 25.99795 | 51.28749 | 11205 ft | 392 kts | 322° |
| 2026-05-07 22:22 | 26.01980 | 51.26872 | 11321 ft | 400 kts | 320° |
| 2026-05-07 22:22 | 26.04163 | 51.24899 | 11491 ft | 406 kts | 320° |
| 2026-05-07 22:23 | 26.06344 | 51.22884 | 11826 ft | 407 kts | 319° |
| 2026-05-07 22:23 | 26.08515 | 51.20873 | 12244 ft | 406 kts | 319° |
| 2026-05-07 22:23 | 26.10694 | 51.18861 | 12649 ft | 406 kts | 319° |
| 2026-05-07 22:23 | 26.12869 | 51.16864 | 13035 ft | 406 kts | 320° |
| 2026-05-07 22:24 | 26.15023 | 51.14896 | 13396 ft | 406 kts | 320° |
| 2026-05-07 22:24 | 26.17210 | 51.12903 | 13749 ft | 407 kts | 320° |
| 2026-05-07 22:24 | 26.19418 | 51.10894 | 14001 ft | 410 kts | 320° |
| 2026-05-07 22:24 | 26.21635 | 51.08876 | 14254 ft | 413 kts | 320° |
| 2026-05-07 22:25 | 26.23872 | 51.06839 | 14509 ft | 415 kts | 319° |
| 2026-05-07 22:25 | 26.26122 | 51.04787 | 14747 ft | 418 kts | 319° |
| 2026-05-07 22:25 | 26.28345 | 51.02728 | 14991 ft | 421 kts | 319° |
| 2026-05-07 22:25 | 26.30592 | 51.00625 | 15291 ft | 422 kts | 319° |
| 2026-05-07 22:26 | 26.32846 | 50.98509 | 15559 ft | 424 kts | 318° |
| 2026-05-07 22:26 | 26.35118 | 50.96372 | 15793 ft | 427 kts | 318° |
| 2026-05-07 22:26 | 26.37395 | 50.94231 | 16028 ft | 429 kts | 318° |
| 2026-05-07 22:26 | 26.39683 | 50.92083 | 16307 ft | 431 kts | 318° |
| 2026-05-07 22:27 | 26.41989 | 50.89920 | 16556 ft | 434 kts | 318° |
| 2026-05-07 22:27 | 26.44318 | 50.87737 | 16772 ft | 437 kts | 318° |
| 2026-05-07 22:27 | 26.46617 | 50.85581 | 17034 ft | 438 kts | 318° |
| 2026-05-07 22:27 | 26.48963 | 50.83382 | 17290 ft | 440 kts | 318° |
| 2026-05-07 22:28 | 26.51316 | 50.81181 | 17526 ft | 442 kts | 318° |
| 2026-05-07 22:28 | 26.53679 | 50.78962 | 17771 ft | 444 kts | 317° |
| 2026-05-07 22:28 | 26.56054 | 50.76728 | 18024 ft | 446 kts | 317° |
| 2026-05-07 22:28 | 26.58439 | 50.74483 | 18219 ft | 448 kts | 317° |
| 2026-05-07 22:29 | 26.60830 | 50.72232 | 18455 ft | 450 kts | 317° |
| 2026-05-07 22:29 | 26.63227 | 50.69974 | 18700 ft | 451 kts | 317° |
| 2026-05-07 22:29 | 26.65599 | 50.67743 | 18935 ft | 452 kts | 317° |
| 2026-05-07 22:29 | 26.68009 | 50.65477 | 19164 ft | 453 kts | 317° |
| 2026-05-07 22:30 | 26.70419 | 50.63207 | 19417 ft | 453 kts | 317° |
| 2026-05-07 22:30 | 26.72828 | 50.60936 | 19734 ft | 452 kts | 317° |
| 2026-05-07 22:30 | 26.75233 | 50.58667 | 19974 ft | 454 kts | 317° |
| 2026-05-07 22:30 | 26.77660 | 50.56375 | 20198 ft | 455 kts | 316° |
| 2026-05-07 22:31 | 26.80080 | 50.54088 | 20458 ft | 456 kts | 316° |
| 2026-05-07 22:31 | 26.82510 | 50.51793 | 20713 ft | 457 kts | 316° |
| 2026-05-07 22:31 | 26.84913 | 50.49520 | 20940 ft | 459 kts | 316° |
| 2026-05-07 22:31 | 26.87357 | 50.47209 | 21169 ft | 460 kts | 316° |
| 2026-05-07 22:32 | 26.89808 | 50.44891 | 21419 ft | 462 kts | 316° |
| 2026-05-07 22:32 | 26.92272 | 50.42566 | 21676 ft | 463 kts | 316° |
| 2026-05-07 22:32 | 26.94744 | 50.40228 | 21943 ft | 463 kts | 316° |
| 2026-05-07 22:32 | 26.97211 | 50.37893 | 22241 ft | 463 kts | 316° |
| 2026-05-07 22:33 | 26.99675 | 50.35559 | 22494 ft | 465 kts | 316° |
| 2026-05-07 22:33 | 27.02123 | 50.33238 | 22740 ft | 467 kts | 316° |
| 2026-05-07 22:33 | 27.04609 | 50.30880 | 22953 ft | 468 kts | 316° |
| 2026-05-07 22:33 | 27.07100 | 50.28516 | 23197 ft | 470 kts | 316° |
| 2026-05-07 22:34 | 27.09600 | 50.26142 | 23430 ft | 471 kts | 316° |
| 2026-05-07 22:34 | 27.12109 | 50.23760 | 23624 ft | 473 kts | 316° |
| 2026-05-07 22:34 | 27.14626 | 50.21367 | 23820 ft | 475 kts | 316° |
| 2026-05-07 22:34 | 27.16300 | 50.19776 | 23913 ft | 477 kts | 316° |
| 2026-05-07 22:35 | 27.18893 | 50.17421 | 24102 ft | 480 kts | 319° |
| 2026-05-07 22:35 | 27.22471 | 50.14463 | 24393 ft | 483 kts | 320° |
| 2026-05-07 22:35 | 27.24332 | 50.12975 | 24545 ft | 484 kts | 321° |
| 2026-05-07 22:35 | 27.27049 | 50.10811 | 24785 ft | 485 kts | 320° |
| 2026-05-07 22:36 | 27.29808 | 50.08596 | 25029 ft | 486 kts | 320° |
| 2026-05-07 22:36 | 27.32558 | 50.06365 | 25257 ft | 488 kts | 320° |
| 2026-05-07 22:36 | 27.35305 | 50.04114 | 25516 ft | 489 kts | 320° |
| 2026-05-07 22:36 | 27.38045 | 50.01839 | 25766 ft | 490 kts | 319° |
| 2026-05-07 22:37 | 27.40750 | 49.99498 | 26037 ft | 490 kts | 317° |
| 2026-05-07 22:37 | 27.43437 | 49.97114 | 26252 ft | 492 kts | 317° |
| 2026-05-07 22:37 | 27.46124 | 49.94711 | 26494 ft | 493 kts | 317° |
| 2026-05-07 22:37 | 27.48784 | 49.92335 | 26729 ft | 495 kts | 317° |
| 2026-05-07 22:38 | 27.51496 | 49.89922 | 26931 ft | 498 kts | 317° |
| 2026-05-07 22:38 | 27.54223 | 49.87505 | 27148 ft | 499 kts | 317° |
| 2026-05-07 22:38 | 27.56964 | 49.85083 | 27382 ft | 501 kts | 317° |
| 2026-05-07 22:38 | 27.59707 | 49.82662 | 27609 ft | 502 kts | 317° |
| 2026-05-07 22:39 | 27.62463 | 49.80230 | 27826 ft | 503 kts | 317° |
| 2026-05-07 22:39 | 27.65224 | 49.77793 | 28039 ft | 505 kts | 317° |
| 2026-05-07 22:39 | 27.67994 | 49.75346 | 28254 ft | 506 kts | 317° |
| 2026-05-07 22:39 | 27.70764 | 49.72897 | 28486 ft | 506 kts | 317° |
| 2026-05-07 22:40 | 27.73536 | 49.70444 | 28763 ft | 506 kts | 317° |
| 2026-05-07 22:40 | 27.76305 | 49.67994 | 29076 ft | 504 kts | 317° |
| 2026-05-07 22:40 | 27.79061 | 49.65554 | 29373 ft | 503 kts | 317° |
| 2026-05-07 22:40 | 27.81781 | 49.63139 | 29649 ft | 502 kts | 316° |
| 2026-05-07 22:41 | 27.84523 | 49.60692 | 29931 ft | 501 kts | 316° |
| 2026-05-07 22:41 | 27.87254 | 49.58247 | 30153 ft | 500 kts | 316° |
| 2026-05-07 22:41 | 27.89982 | 49.55803 | 30363 ft | 500 kts | 316° |
| 2026-05-07 22:41 | 27.92707 | 49.53361 | 30546 ft | 499 kts | 316° |